sensor_id;sensor_type;location;lat;lon;timestamp;pressure;altitude;pressure_sealevel;temperature;humidity
48964;BME280;34776;48.180;16.420;2023-04-26T00:01:17;99529.56;;;9.88;57.23
48964;BME280;34776;48.180;16.420;2023-04-26T00:03:42;99526.97;;;9.87;57.15
48964;BME280;34776;48.180;16.420;2023-04-26T00:06:08;99540.03;;;9.91;56.89
48964;BME280;34776;48.180;16.420;2023-04-26T00:08:34;99545.34;;;9.91;56.73
48964;BME280;34776;48.180;16.420;2023-04-26T00:11:00;99545.34;;;9.91;56.58
48964;BME280;34776;48.180;16.420;2023-04-26T00:13:25;99543.59;;;9.90;56.28
48964;BME280;34776;48.180;16.420;2023-04-26T00:15:51;99535.81;;;9.87;56.09
48964;BME280;34776;48.180;16.420;2023-04-26T00:18:16;99537.78;;;9.84;56.27
48964;BME280;34776;48.180;16.420;2023-04-26T00:20:42;99546.91;;;9.78;56.32
48964;BME280;34776;48.180;16.420;2023-04-26T00:23:08;99545.53;;;9.71;56.31
48964;BME280;34776;48.180;16.420;2023-04-26T00:25:34;99550.53;;;9.60;56.77
48964;BME280;34776;48.180;16.420;2023-04-26T00:28:00;99559.00;;;9.49;56.68
48964;BME280;34776;48.180;16.420;2023-04-26T00:30:26;99542.72;;;9.39;56.75
48964;BME280;34776;48.180;16.420;2023-04-26T00:32:51;99555.34;;;9.34;56.93
48964;BME280;34776;48.180;16.420;2023-04-26T00:35:17;99546.06;;;9.25;57.04
48964;BME280;34776;48.180;16.420;2023-04-26T00:37:42;99541.78;;;9.23;56.92
48964;BME280;34776;48.180;16.420;2023-04-26T00:40:08;99555.28;;;9.18;57.12
48964;BME280;34776;48.180;16.420;2023-04-26T00:42:33;99557.28;;;9.13;57.01
48964;BME280;34776;48.180;16.420;2023-04-26T00:44:59;99556.59;;;9.09;57.28
48964;BME280;34776;48.180;16.420;2023-04-26T00:47:24;99550.63;;;9.04;57.49
48964;BME280;34776;48.180;16.420;2023-04-26T00:49:50;99552.56;;;9.01;57.50
48964;BME280;34776;48.180;16.420;2023-04-26T00:52:16;99545.66;;;8.98;57.50
48964;BME280;34776;48.180;16.420;2023-04-26T00:54:42;99549.31;;;8.96;57.06
48964;BME280;34776;48.180;16.420;2023-04-26T00:57:07;99550.38;;;8.91;57.27
48964;BME280;34776;48.180;16.420;2023-04-26T00:59:34;99551.25;;;8.92;57.08
48964;BME280;34776;48.180;16.420;2023-04-26T01:02:02;99557.31;;;8.94;56.64
48964;BME280;34776;48.180;16.420;2023-04-26T01:04:27;99556.69;;;8.89;56.81
48964;BME280;34776;48.180;16.420;2023-04-26T01:06:54;99564.78;;;8.86;56.71
48964;BME280;34776;48.180;16.420;2023-04-26T01:09:20;99560.50;;;8.83;56.48
48964;BME280;34776;48.180;16.420;2023-04-26T01:11:45;99550.06;;;8.80;56.49
48964;BME280;34776;48.180;16.420;2023-04-26T01:14:11;99556.22;;;8.81;56.34
48964;BME280;34776;48.180;16.420;2023-04-26T01:16:38;99556.78;;;8.87;56.39
48964;BME280;34776;48.180;16.420;2023-04-26T01:19:11;99557.50;;;8.91;55.91
48964;BME280;34776;48.180;16.420;2023-04-26T01:21:37;99559.06;;;8.95;55.48
48964;BME280;34776;48.180;16.420;2023-04-26T01:24:03;99557.03;;;9.00;55.38
48964;BME280;34776;48.180;16.420;2023-04-26T01:26:29;99554.31;;;9.02;55.10
48964;BME280;34776;48.180;16.420;2023-04-26T01:28:55;99564.06;;;9.01;54.91
48964;BME280;34776;48.180;16.420;2023-04-26T01:31:20;99572.94;;;9.00;54.75
48964;BME280;34776;48.180;16.420;2023-04-26T01:33:46;99578.22;;;9.00;54.41
48964;BME280;34776;48.180;16.420;2023-04-26T01:36:11;99580.59;;;9.06;54.17
48964;BME280;34776;48.180;16.420;2023-04-26T01:38:36;99581.06;;;9.14;54.01
48964;BME280;34776;48.180;16.420;2023-04-26T01:41:02;99573.06;;;9.16;53.59
48964;BME280;34776;48.180;16.420;2023-04-26T01:43:27;99577.34;;;9.19;53.78
48964;BME280;34776;48.180;16.420;2023-04-26T01:45:53;99587.78;;;9.22;53.52
48964;BME280;34776;48.180;16.420;2023-04-26T01:48:18;99586.06;;;9.21;53.37
48964;BME280;34776;48.180;16.420;2023-04-26T01:50:43;99594.03;;;9.21;53.22
48964;BME280;34776;48.180;16.420;2023-04-26T01:53:09;99594.81;;;9.23;52.99
48964;BME280;34776;48.180;16.420;2023-04-26T01:55:34;99595.72;;;9.22;52.28
48964;BME280;34776;48.180;16.420;2023-04-26T01:58:00;99604.56;;;9.22;52.23
48964;BME280;34776;48.180;16.420;2023-04-26T02:00:26;99589.63;;;9.20;51.84
48964;BME280;34776;48.180;16.420;2023-04-26T02:02:55;99592.38;;;9.18;51.33
48964;BME280;34776;48.180;16.420;2023-04-26T02:05:21;99595.28;;;9.13;50.98
48964;BME280;34776;48.180;16.420;2023-04-26T02:07:47;99592.25;;;9.02;51.06
48964;BME280;34776;48.180;16.420;2023-04-26T02:10:12;99594.59;;;8.91;51.06
48964;BME280;34776;48.180;16.420;2023-04-26T02:12:38;99598.59;;;8.81;51.30
48964;BME280;34776;48.180;16.420;2023-04-26T02:15:04;99592.88;;;8.71;51.20
48964;BME280;34776;48.180;16.420;2023-04-26T02:17:30;99597.47;;;8.67;51.34
48964;BME280;34776;48.180;16.420;2023-04-26T02:19:55;99594.16;;;8.62;51.02
48964;BME280;34776;48.180;16.420;2023-04-26T02:22:22;99599.75;;;8.56;51.38
48964;BME280;34776;48.180;16.420;2023-04-26T02:24:49;99596.47;;;8.51;51.18
48964;BME280;34776;48.180;16.420;2023-04-26T02:27:15;99603.63;;;8.49;51.49
48964;BME280;34776;48.180;16.420;2023-04-26T02:29:41;99602.97;;;8.44;51.47
48964;BME280;34776;48.180;16.420;2023-04-26T02:32:06;99603.91;;;8.43;51.55
48964;BME280;34776;48.180;16.420;2023-04-26T02:34:32;99604.00;;;8.40;51.72
48964;BME280;34776;48.180;16.420;2023-04-26T02:36:57;99601.44;;;8.38;51.93
48964;BME280;34776;48.180;16.420;2023-04-26T02:39:23;99603.28;;;8.36;52.21
48964;BME280;34776;48.180;16.420;2023-04-26T02:41:48;99595.53;;;8.31;52.50
48964;BME280;34776;48.180;16.420;2023-04-26T02:44:13;99598.28;;;8.30;52.75
48964;BME280;34776;48.180;16.420;2023-04-26T02:46:39;99601.13;;;8.25;53.04
48964;BME280;34776;48.180;16.420;2023-04-26T02:49:04;99601.25;;;8.22;53.22
48964;BME280;34776;48.180;16.420;2023-04-26T03:08:52;99601.28;;;8.02;53.37
48964;BME280;34776;48.180;16.420;2023-04-26T03:11:18;99603.13;;;8.00;53.32
48964;BME280;34776;48.180;16.420;2023-04-26T03:13:43;99614.78;;;7.96;53.43
48964;BME280;34776;48.180;16.420;2023-04-26T03:16:08;99615.84;;;7.91;53.30
48964;BME280;34776;48.180;16.420;2023-04-26T03:18:34;99620.34;;;7.89;53.37
48964;BME280;34776;48.180;16.420;2023-04-26T03:20:59;99620.47;;;7.86;53.19
48964;BME280;34776;48.180;16.420;2023-04-26T03:23:25;99620.47;;;7.86;52.87
48964;BME280;34776;48.180;16.420;2023-04-26T03:25:50;99621.47;;;7.84;52.90
48964;BME280;34776;48.180;16.420;2023-04-26T03:28:16;99616.31;;;7.81;53.16
48964;BME280;34776;48.180;16.420;2023-04-26T03:30:41;99622.59;;;7.78;53.29
48964;BME280;34776;48.180;16.420;2023-04-26T03:33:07;99618.25;;;7.77;53.15
48964;BME280;34776;48.180;16.420;2023-04-26T03:35:32;99621.00;;;7.74;53.18
48964;BME280;34776;48.180;16.420;2023-04-26T03:37:57;99620.28;;;7.70;53.25
48964;BME280;34776;48.180;16.420;2023-04-26T03:40:22;99622.13;;;7.68;52.97
48964;BME280;34776;48.180;16.420;2023-04-26T03:42:48;99624.75;;;7.68;53.36
48964;BME280;34776;48.180;16.420;2023-04-26T03:45:13;99632.00;;;7.65;53.02
48964;BME280;34776;48.180;16.420;2023-04-26T03:47:38;99639.97;;;7.63;53.13
48964;BME280;34776;48.180;16.420;2023-04-26T03:50:05;99645.28;;;7.63;53.27
48964;BME280;34776;48.180;16.420;2023-04-26T03:52:31;99657.69;;;7.61;53.18
48964;BME280;34776;48.180;16.420;2023-04-26T03:54:56;99642.69;;;7.62;53.30
48964;BME280;34776;48.180;16.420;2023-04-26T03:57:21;99642.69;;;7.62;53.25
48964;BME280;34776;48.180;16.420;2023-04-26T03:59:47;99649.72;;;7.63;53.19
48964;BME280;34776;48.180;16.420;2023-04-26T04:02:12;99644.38;;;7.64;52.99
48964;BME280;34776;48.180;16.420;2023-04-26T04:04:37;99649.56;;;7.66;53.19
48964;BME280;34776;48.180;16.420;2023-04-26T04:07:03;99640.72;;;7.67;53.17
48964;BME280;34776;48.180;16.420;2023-04-26T04:09:28;99641.63;;;7.66;53.14
48964;BME280;34776;48.180;16.420;2023-04-26T04:11:53;99642.44;;;7.68;53.22
48964;BME280;34776;48.180;16.420;2023-04-26T04:14:19;99645.75;;;7.73;52.91
48964;BME280;34776;48.180;16.420;2023-04-26T04:16:44;99643.91;;;7.75;52.87
48964;BME280;34776;48.180;16.420;2023-04-26T04:19:09;99650.91;;;7.76;52.95
48964;BME280;34776;48.180;16.420;2023-04-26T04:21:35;99653.44;;;7.79;52.59
48964;BME280;34776;48.180;16.420;2023-04-26T04:24:00;99654.06;;;7.84;52.95
48964;BME280;34776;48.180;16.420;2023-04-26T04:26:25;99662.81;;;7.86;52.55
48964;BME280;34776;48.180;16.420;2023-04-26T04:28:52;99673.41;;;7.86;52.36
48964;BME280;34776;48.180;16.420;2023-04-26T04:31:19;99678.53;;;7.89;52.38
48964;BME280;34776;48.180;16.420;2023-04-26T04:33:44;99677.47;;;7.93;52.27
48964;BME280;34776;48.180;16.420;2023-04-26T04:36:10;99685.38;;;7.95;52.27
48964;BME280;34776;48.180;16.420;2023-04-26T04:38:35;99678.44;;;7.92;52.30
48964;BME280;34776;48.180;16.420;2023-04-26T04:41:00;99687.16;;;7.95;52.29
48964;BME280;34776;48.180;16.420;2023-04-26T04:43:26;99681.81;;;7.96;52.34
48964;BME280;34776;48.180;16.420;2023-04-26T04:45:52;99683.56;;;7.96;52.31
48964;BME280;34776;48.180;16.420;2023-04-26T04:48:17;99677.16;;;8.01;52.10
48964;BME280;34776;48.180;16.420;2023-04-26T04:50:44;99678.81;;;8.04;52.04
48964;BME280;34776;48.180;16.420;2023-04-26T04:53:09;99691.00;;;8.08;52.29
48964;BME280;34776;48.180;16.420;2023-04-26T04:55:36;99684.00;;;8.07;52.16
48964;BME280;34776;48.180;16.420;2023-04-26T04:58:02;99686.50;;;8.10;52.39
48964;BME280;34776;48.180;16.420;2023-04-26T05:00:28;99682.78;;;8.14;52.24
48964;BME280;34776;48.180;16.420;2023-04-26T05:02:55;99680.81;;;8.19;52.36
48964;BME280;34776;48.180;16.420;2023-04-26T05:05:22;99694.75;;;8.23;52.38
48964;BME280;34776;48.180;16.420;2023-04-26T05:07:53;99692.56;;;8.32;52.48
48964;BME280;34776;48.180;16.420;2023-04-26T05:10:20;99697.59;;;8.39;52.32
48964;BME280;34776;48.180;16.420;2023-04-26T05:12:45;99699.28;;;8.41;52.56
48964;BME280;34776;48.180;16.420;2023-04-26T05:15:11;99699.94;;;8.46;52.65
48964;BME280;34776;48.180;16.420;2023-04-26T05:17:36;99706.75;;;8.52;52.74
48964;BME280;34776;48.180;16.420;2023-04-26T05:20:02;99704.69;;;8.59;52.64
48964;BME280;34776;48.180;16.420;2023-04-26T05:22:31;99704.63;;;8.60;52.46
48964;BME280;34776;48.180;16.420;2023-04-26T05:25:12;99706.19;;;8.64;52.38
48964;BME280;34776;48.180;16.420;2023-04-26T05:27:39;99705.97;;;8.69;52.48
48964;BME280;34776;48.180;16.420;2023-04-26T05:30:05;99712.00;;;8.72;52.41
48964;BME280;34776;48.180;16.420;2023-04-26T05:32:31;99717.16;;;8.76;52.55
48964;BME280;34776;48.180;16.420;2023-04-26T05:34:57;99722.34;;;8.79;52.39
48964;BME280;34776;48.180;16.420;2023-04-26T05:37:23;99718.63;;;8.83;52.30
48964;BME280;34776;48.180;16.420;2023-04-26T05:39:48;99718.56;;;8.84;52.24
48964;BME280;34776;48.180;16.420;2023-04-26T05:42:15;99721.19;;;8.84;51.79
48964;BME280;34776;48.180;16.420;2023-04-26T05:44:40;99723.63;;;8.89;51.76
48964;BME280;34776;48.180;16.420;2023-04-26T05:49:33;99724.00;;;9.00;51.18
48964;BME280;34776;48.180;16.420;2023-04-26T05:51:59;99732.72;;;9.02;51.07
48964;BME280;34776;48.180;16.420;2023-04-26T05:54:25;99734.03;;;9.12;50.98
48964;BME280;34776;48.180;16.420;2023-04-26T05:56:50;99737.03;;;9.24;50.79
48964;BME280;34776;48.180;16.420;2023-04-26T06:01:50;99742.75;;;9.33;50.30
48964;BME280;34776;48.180;16.420;2023-04-26T06:04:16;99746.69;;;9.44;50.16
48964;BME280;34776;48.180;16.420;2023-04-26T06:06:41;99754.44;;;9.48;49.93
48964;BME280;34776;48.180;16.420;2023-04-26T06:09:07;99758.81;;;9.49;49.87
48964;BME280;34776;48.180;16.420;2023-04-26T06:11:32;99763.03;;;9.53;49.73
48964;BME280;34776;48.180;16.420;2023-04-26T06:13:58;99760.88;;;9.62;49.33
48964;BME280;34776;48.180;16.420;2023-04-26T06:16:23;99756.03;;;9.70;49.25
48964;BME280;34776;48.180;16.420;2023-04-26T06:18:48;99765.44;;;9.77;48.93
48964;BME280;34776;48.180;16.420;2023-04-26T06:21:14;99762.13;;;9.72;48.64
48964;BME280;34776;48.180;16.420;2023-04-26T06:23:39;99770.75;;;9.77;48.85
48964;BME280;34776;48.180;16.420;2023-04-26T06:26:05;99771.84;;;9.90;48.44
48964;BME280;34776;48.180;16.420;2023-04-26T06:31:05;99774.88;;;10.19;48.08
48964;BME280;34776;48.180;16.420;2023-04-26T06:33:31;99773.09;;;12.61;45.09
48964;BME280;34776;48.180;16.420;2023-04-26T06:35:56;99765.97;;;16.06;39.52
48964;BME280;34776;48.180;16.420;2023-04-26T06:38:21;99773.13;;;18.32;35.88
48964;BME280;34776;48.180;16.420;2023-04-26T06:43:22;99763.72;;;20.79;32.12
48964;BME280;34776;48.180;16.420;2023-04-26T06:48:15;99769.69;;;20.73;30.97
48964;BME280;34776;48.180;16.420;2023-04-26T06:50:40;99771.06;;;21.89;30.38
48964;BME280;34776;48.180;16.420;2023-04-26T06:53:06;99771.34;;;23.28;29.03
48964;BME280;34776;48.180;16.420;2023-04-26T06:55:32;99767.56;;;22.87;28.41
48964;BME280;34776;48.180;16.420;2023-04-26T06:57:57;99773.06;;;23.29;27.64
48964;BME280;34776;48.180;16.420;2023-04-26T07:00:23;99771.94;;;23.06;27.76
48964;BME280;34776;48.180;16.420;2023-04-26T07:02:48;99772.53;;;21.84;29.15
48964;BME280;34776;48.180;16.420;2023-04-26T07:05:13;99769.78;;;22.92;27.95
48964;BME280;34776;48.180;16.420;2023-04-26T07:07:42;99763.84;;;23.99;26.13
48964;BME280;34776;48.180;16.420;2023-04-26T07:10:08;99757.63;;;24.81;25.16
48964;BME280;34776;48.180;16.420;2023-04-26T07:12:33;99765.50;;;25.31;24.99
48964;BME280;34776;48.180;16.420;2023-04-26T07:14:59;99759.41;;;25.21;24.35
48964;BME280;34776;48.180;16.420;2023-04-26T07:17:25;99758.75;;;24.95;23.56
48964;BME280;34776;48.180;16.420;2023-04-26T07:19:51;99759.66;;;25.43;23.22
48964;BME280;34776;48.180;16.420;2023-04-26T07:22:16;99754.91;;;25.45;23.78
48964;BME280;34776;48.180;16.420;2023-04-26T07:24:41;99760.31;;;25.84;23.13
48964;BME280;34776;48.180;16.420;2023-04-26T07:27:07;99761.72;;;26.11;22.48
48964;BME280;34776;48.180;16.420;2023-04-26T07:29:32;99756.91;;;26.98;21.11
48964;BME280;34776;48.180;16.420;2023-04-26T07:31:57;99761.06;;;27.08;21.05
48964;BME280;34776;48.180;16.420;2023-04-26T07:34:23;99762.94;;;26.93;21.32
48964;BME280;34776;48.180;16.420;2023-04-26T07:36:49;99753.66;;;27.98;20.90
48964;BME280;34776;48.180;16.420;2023-04-26T07:39:14;99752.44;;;28.65;19.67
48964;BME280;34776;48.180;16.420;2023-04-26T07:41:39;99762.03;;;29.46;19.64
48964;BME280;34776;48.180;16.420;2023-04-26T07:44:05;99762.06;;;28.89;19.03
48964;BME280;34776;48.180;16.420;2023-04-26T07:46:34;99772.16;;;25.68;21.33
48964;BME280;34776;48.180;16.420;2023-04-26T07:48:59;99765.50;;;26.57;21.42
48964;BME280;34776;48.180;16.420;2023-04-26T07:51:25;99761.78;;;27.77;20.02
48964;BME280;34776;48.180;16.420;2023-04-26T07:53:51;99767.16;;;27.10;19.88
48964;BME280;34776;48.180;16.420;2023-04-26T07:56:17;99762.63;;;26.27;20.56
48964;BME280;34776;48.180;16.420;2023-04-26T07:58:42;99765.38;;;25.08;21.25
48964;BME280;34776;48.180;16.420;2023-04-26T08:01:08;99770.34;;;22.33;22.78
48964;BME280;34776;48.180;16.420;2023-04-26T08:03:35;99776.22;;;20.02;25.37
48964;BME280;34776;48.180;16.420;2023-04-26T08:06:01;99769.78;;;20.91;25.00
48964;BME280;34776;48.180;16.420;2023-04-26T08:08:27;99773.63;;;19.81;25.71
48964;BME280;34776;48.180;16.420;2023-04-26T08:10:53;99781.88;;;18.13;27.32
48964;BME280;34776;48.180;16.420;2023-04-26T08:13:18;99783.09;;;17.32;28.43
48964;BME280;34776;48.180;16.420;2023-04-26T08:15:44;99786.88;;;16.49;29.18
48964;BME280;34776;48.180;16.420;2023-04-26T08:18:09;99790.16;;;15.93;29.59
48964;BME280;34776;48.180;16.420;2023-04-26T08:20:35;99791.66;;;15.73;30.31
48964;BME280;34776;48.180;16.420;2023-04-26T08:23:00;99792.72;;;15.57;30.45
48964;BME280;34776;48.180;16.420;2023-04-26T08:25:26;99803.09;;;15.12;31.13
48964;BME280;34776;48.180;16.420;2023-04-26T08:27:51;99796.34;;;14.81;31.55
48964;BME280;34776;48.180;16.420;2023-04-26T08:30:17;99783.16;;;14.65;31.45
48964;BME280;34776;48.180;16.420;2023-04-26T08:32:44;99797.97;;;14.44;32.18
48964;BME280;34776;48.180;16.420;2023-04-26T08:35:10;99795.22;;;14.18;32.65
48964;BME280;34776;48.180;16.420;2023-04-26T08:37:35;99790.97;;;14.94;32.61
48964;BME280;34776;48.180;16.420;2023-04-26T08:40:03;99790.91;;;15.95;30.96
48964;BME280;34776;48.180;16.420;2023-04-26T08:42:29;99792.66;;;15.70;31.02
48964;BME280;34776;48.180;16.420;2023-04-26T08:44:59;99789.41;;;15.91;30.90
48964;BME280;34776;48.180;16.420;2023-04-26T08:47:46;99781.50;;;16.95;29.95
48964;BME280;34776;48.180;16.420;2023-04-26T08:50:12;99788.09;;;18.14;27.88
48964;BME280;34776;48.180;16.420;2023-04-26T08:52:39;99788.72;;;17.40;29.00
48964;BME280;34776;48.180;16.420;2023-04-26T08:55:07;99794.59;;;16.29;30.11
48964;BME280;34776;48.180;16.420;2023-04-26T08:57:34;99789.53;;;15.52;31.11
48964;BME280;34776;48.180;16.420;2023-04-26T09:00:02;99800.28;;;15.14;31.93
48964;BME280;34776;48.180;16.420;2023-04-26T09:02:29;99806.50;;;14.49;32.10
48964;BME280;34776;48.180;16.420;2023-04-26T09:04:55;99810.22;;;14.33;32.63
48964;BME280;34776;48.180;16.420;2023-04-26T09:09:56;99812.97;;;16.47;31.34
48964;BME280;34776;48.180;16.420;2023-04-26T09:12:22;99792.41;;;20.80;25.76
48964;BME280;34776;48.180;16.420;2023-04-26T09:14:47;99795.25;;;19.60;26.25
48964;BME280;34776;48.180;16.420;2023-04-26T09:17:30;99800.41;;;17.61;27.50
48964;BME280;34776;48.180;16.420;2023-04-26T09:19:56;99805.47;;;16.74;29.63
48964;BME280;34776;48.180;16.420;2023-04-26T09:22:32;99791.94;;;16.76;28.11
48964;BME280;34776;48.180;16.420;2023-04-26T09:24:59;99783.59;;;17.48;28.54
48964;BME280;34776;48.180;16.420;2023-04-26T09:27:38;99779.94;;;17.04;27.07
48964;BME280;34776;48.180;16.420;2023-04-26T09:30:05;99781.25;;;16.40;28.91
48964;BME280;34776;48.180;16.420;2023-04-26T09:32:51;99789.81;;;15.97;29.52
48964;BME280;34776;48.180;16.420;2023-04-26T09:40:37;99775.25;;;14.89;31.80
48964;BME280;34776;48.180;16.420;2023-04-26T09:43:07;99799.38;;;14.49;32.49
48964;BME280;34776;48.180;16.420;2023-04-26T09:45:46;99788.56;;;14.11;33.17
48964;BME280;34776;48.180;16.420;2023-04-26T09:48:13;99792.19;;;14.10;33.46
48964;BME280;34776;48.180;16.420;2023-04-26T09:50:40;99788.91;;;14.19;33.54
48964;BME280;34776;48.180;16.420;2023-04-26T09:53:06;99777.41;;;14.44;33.50
48964;BME280;34776;48.180;16.420;2023-04-26T09:55:32;99779.31;;;14.95;33.34
48964;BME280;34776;48.180;16.420;2023-04-26T09:57:57;99785.72;;;15.05;32.79
48964;BME280;34776;48.180;16.420;2023-04-26T10:00:25;99781.66;;;15.12;32.77
48964;BME280;34776;48.180;16.420;2023-04-26T10:02:54;99766.22;;;15.29;32.39
48964;BME280;34776;48.180;16.420;2023-04-26T10:05:20;99771.72;;;15.51;31.79
48964;BME280;34776;48.180;16.420;2023-04-26T10:07:46;99774.53;;;15.37;32.17
48964;BME280;34776;48.180;16.420;2023-04-26T10:10:12;99773.75;;;14.85;32.30
48964;BME280;34776;48.180;16.420;2023-04-26T10:12:40;99766.25;;;14.90;32.86
48964;BME280;34776;48.180;16.420;2023-04-26T10:15:08;99755.28;;;15.32;32.67
48964;BME280;34776;48.180;16.420;2023-04-26T10:17:33;99765.53;;;15.51;32.70
48964;BME280;34776;48.180;16.420;2023-04-26T10:19:59;99775.09;;;15.42;32.09
48964;BME280;34776;48.180;16.420;2023-04-26T10:22:34;99778.25;;;14.85;32.46
48964;BME280;34776;48.180;16.420;2023-04-26T10:25:01;99784.13;;;14.90;33.15
48964;BME280;34776;48.180;16.420;2023-04-26T10:30:09;99777.38;;;14.71;33.82
48964;BME280;34776;48.180;16.420;2023-04-26T10:35:29;99775.16;;;15.53;34.10
48964;BME280;34776;48.180;16.420;2023-04-26T10:45:46;99752.41;;;18.23;29.71
48964;BME280;34776;48.180;16.420;2023-04-26T10:53:30;99759.84;;;15.92;31.98
48964;BME280;34776;48.180;16.420;2023-04-26T10:55:56;99757.06;;;15.94;32.16
48964;BME280;34776;48.180;16.420;2023-04-26T10:58:33;99750.38;;;15.99;31.99
48964;BME280;34776;48.180;16.420;2023-04-26T11:03:30;99757.81;;;17.57;30.94
48964;BME280;34776;48.180;16.420;2023-04-26T11:05:56;99738.47;;;18.18;29.27
48964;BME280;34776;48.180;16.420;2023-04-26T11:08:29;99739.47;;;17.73;29.42
48964;BME280;34776;48.180;16.420;2023-04-26T11:11:06;99746.75;;;16.94;29.41
48964;BME280;34776;48.180;16.420;2023-04-26T11:13:39;99749.91;;;16.06;31.06
48964;BME280;34776;48.180;16.420;2023-04-26T11:16:12;99763.69;;;15.14;32.60
48964;BME280;34776;48.180;16.420;2023-04-26T11:18:39;99752.84;;;14.52;33.55
48964;BME280;34776;48.180;16.420;2023-04-26T11:21:06;99757.19;;;14.27;34.30
48964;BME280;34776;48.180;16.420;2023-04-26T11:23:33;99749.16;;;14.27;34.68
48964;BME280;34776;48.180;16.420;2023-04-26T11:26:04;99758.19;;;14.39;34.58
48964;BME280;34776;48.180;16.420;2023-04-26T11:28:37;99752.50;;;14.31;33.95
48964;BME280;34776;48.180;16.420;2023-04-26T11:31:03;99745.41;;;14.30;33.60
48964;BME280;34776;48.180;16.420;2023-04-26T11:33:29;99739.25;;;14.55;33.78
48964;BME280;34776;48.180;16.420;2023-04-26T11:35:56;99740.47;;;15.02;33.27
48964;BME280;34776;48.180;16.420;2023-04-26T11:38:23;99743.91;;;15.41;32.40
48964;BME280;34776;48.180;16.420;2023-04-26T11:41:10;99732.50;;;15.63;31.70
48964;BME280;34776;48.180;16.420;2023-04-26T11:43:39;99726.06;;;16.14;30.73
48964;BME280;34776;48.180;16.420;2023-04-26T11:46:05;99720.56;;;16.62;30.83
48964;BME280;34776;48.180;16.420;2023-04-26T11:48:32;99720.25;;;17.00;29.55
48964;BME280;34776;48.180;16.420;2023-04-26T11:50:58;99718.44;;;17.12;28.71
48964;BME280;34776;48.180;16.420;2023-04-26T11:53:34;99719.88;;;17.39;26.93
48964;BME280;34776;48.180;16.420;2023-04-26T11:56:00;99735.00;;;17.17;27.37
48964;BME280;34776;48.180;16.420;2023-04-26T11:58:25;99727.16;;;16.69;28.05
48964;BME280;34776;48.180;16.420;2023-04-26T12:00:55;99734.25;;;16.70;27.59
48964;BME280;34776;48.180;16.420;2023-04-26T12:03:21;99737.88;;;16.69;28.01
48964;BME280;34776;48.180;16.420;2023-04-26T12:05:53;99728.59;;;16.51;27.51
48964;BME280;34776;48.180;16.420;2023-04-26T12:08:22;99737.34;;;16.41;28.21
48964;BME280;34776;48.180;16.420;2023-04-26T12:10:48;99725.88;;;16.39;27.81
48964;BME280;34776;48.180;16.420;2023-04-26T12:13:13;99719.56;;;16.40;27.88
48964;BME280;34776;48.180;16.420;2023-04-26T12:15:38;99717.34;;;16.34;27.85
48964;BME280;34776;48.180;16.420;2023-04-26T12:18:08;99723.97;;;16.53;27.46
48964;BME280;34776;48.180;16.420;2023-04-26T12:20:37;99721.38;;;16.98;27.19
48964;BME280;34776;48.180;16.420;2023-04-26T12:23:07;99719.88;;;17.28;26.99
48964;BME280;34776;48.180;16.420;2023-04-26T12:25:34;99718.69;;;17.20;26.94
48964;BME280;34776;48.180;16.420;2023-04-26T12:28:00;99722.53;;;17.50;26.98
48964;BME280;34776;48.180;16.420;2023-04-26T12:30:27;99721.38;;;17.75;27.15
48964;BME280;34776;48.180;16.420;2023-04-26T12:32:53;99716.59;;;17.79;26.49
48964;BME280;34776;48.180;16.420;2023-04-26T12:35:18;99717.81;;;17.86;26.90
48964;BME280;34776;48.180;16.420;2023-04-26T12:37:44;99720.13;;;18.23;27.34
48964;BME280;34776;48.180;16.420;2023-04-26T12:40:10;99719.91;;;17.71;27.98
48964;BME280;34776;48.180;16.420;2023-04-26T12:42:36;99727.69;;;17.31;28.65
48964;BME280;34776;48.180;16.420;2023-04-26T12:45:01;99725.25;;;16.94;29.02
48964;BME280;34776;48.180;16.420;2023-04-26T12:47:29;99723.25;;;16.51;29.35
48964;BME280;34776;48.180;16.420;2023-04-26T12:49:54;99733.81;;;16.06;30.12
48964;BME280;34776;48.180;16.420;2023-04-26T12:52:20;99722.88;;;15.60;30.63
48964;BME280;34776;48.180;16.420;2023-04-26T12:54:45;99728.28;;;15.35;30.69
48964;BME280;34776;48.180;16.420;2023-04-26T12:57:11;99729.94;;;15.12;31.04
48964;BME280;34776;48.180;16.420;2023-04-26T12:59:38;99729.66;;;14.91;31.42
48964;BME280;34776;48.180;16.420;2023-04-26T13:02:03;99728.38;;;14.84;31.47
48964;BME280;34776;48.180;16.420;2023-04-26T13:04:28;99727.41;;;14.97;31.49
48964;BME280;34776;48.180;16.420;2023-04-26T13:06:54;99713.50;;;14.79;31.04
48964;BME280;34776;48.180;16.420;2023-04-26T13:09:20;99717.00;;;14.41;31.40
48964;BME280;34776;48.180;16.420;2023-04-26T13:11:45;99721.91;;;14.22;31.99
48964;BME280;34776;48.180;16.420;2023-04-26T13:14:11;99733.41;;;14.10;32.17
48964;BME280;34776;48.180;16.420;2023-04-26T13:16:36;99735.22;;;13.96;32.10
48964;BME280;34776;48.180;16.420;2023-04-26T13:19:06;99737.91;;;14.09;32.07
48964;BME280;34776;48.180;16.420;2023-04-26T13:21:31;99743.88;;;14.13;31.82
48964;BME280;34776;48.180;16.420;2023-04-26T13:23:57;99728.75;;;14.26;31.81
48964;BME280;34776;48.180;16.420;2023-04-26T13:26:22;99727.31;;;14.60;31.95
48964;BME280;34776;48.180;16.420;2023-04-26T13:28:47;99731.06;;;14.71;31.44
48964;BME280;34776;48.180;16.420;2023-04-26T13:31:13;99735.25;;;14.62;31.26
48964;BME280;34776;48.180;16.420;2023-04-26T13:33:41;99730.41;;;14.67;31.64
48964;BME280;34776;48.180;16.420;2023-04-26T13:36:06;99739.59;;;14.76;31.38
48964;BME280;34776;48.180;16.420;2023-04-26T13:38:31;99732.78;;;14.85;31.72
48964;BME280;34776;48.180;16.420;2023-04-26T13:40:57;99727.19;;;15.50;31.17
48964;BME280;34776;48.180;16.420;2023-04-26T13:43:22;99727.28;;;16.21;30.51
48964;BME280;34776;48.180;16.420;2023-04-26T13:45:47;99723.25;;;16.73;29.61
48964;BME280;34776;48.180;16.420;2023-04-26T13:48:16;99716.00;;;16.98;29.24
48964;BME280;34776;48.180;16.420;2023-04-26T13:50:41;99724.75;;;17.34;29.15